sensor_id;sensor_type;location;lat;lon;timestamp;temperature;humidity
19330;DHT22;9799;48.214;16.388;2022-12-29T00:01:19;3.90;99.90
19330;DHT22;9799;48.214;16.388;2022-12-29T00:04:41;3.70;99.90
19330;DHT22;9799;48.214;16.388;2022-12-29T00:08:03;3.60;99.90
19330;DHT22;9799;48.214;16.388;2022-12-29T00:11:26;3.50;99.90
19330;DHT22;9799;48.214;16.388;2022-12-29T00:14:47;3.40;99.90
19330;DHT22;9799;48.214;16.388;2022-12-29T00:18:27;3.30;99.90
19330;DHT22;9799;48.214;16.388;2022-12-29T00:21:50;3.60;99.90
19330;DHT22;9799;48.214;16.388;2022-12-29T00:25:28;3.80;99.90
19330;DHT22;9799;48.214;16.388;2022-12-29T00:29:07;3.60;99.90
19330;DHT22;9799;48.214;16.388;2022-12-29T00:32:46;3.50;99.90
19330;DHT22;9799;48.214;16.388;2022-12-29T00:36:38;3.60;99.90
19330;DHT22;9799;48.214;16.388;2022-12-29T00:40:01;3.60;99.90
19330;DHT22;9799;48.214;16.388;2022-12-29T00:43:40;3.50;99.90
19330;DHT22;9799;48.214;16.388;2022-12-29T00:47:19;3.50;99.90
19330;DHT22;9799;48.214;16.388;2022-12-29T00:50:40;3.70;99.90
19330;DHT22;9799;48.214;16.388;2022-12-29T00:54:01;3.50;99.90
19330;DHT22;9799;48.214;16.388;2022-12-29T00:57:24;3.40;99.90
19330;DHT22;9799;48.214;16.388;2022-12-29T01:00:45;3.30;99.90
19330;DHT22;9799;48.214;16.388;2022-12-29T01:04:06;3.60;99.90
19330;DHT22;9799;48.214;16.388;2022-12-29T01:07:28;3.80;99.90
19330;DHT22;9799;48.214;16.388;2022-12-29T01:10:58;3.80;99.90
19330;DHT22;9799;48.214;16.388;2022-12-29T01:14:20;3.90;99.90
19330;DHT22;9799;48.214;16.388;2022-12-29T01:17:42;3.80;99.90
19330;DHT22;9799;48.214;16.388;2022-12-29T01:21:05;3.70;99.90
19330;DHT22;9799;48.214;16.388;2022-12-29T01:24:27;3.80;99.90
19330;DHT22;9799;48.214;16.388;2022-12-29T01:27:48;3.60;99.90
19330;DHT22;9799;48.214;16.388;2022-12-29T01:31:13;3.70;99.90
19330;DHT22;9799;48.214;16.388;2022-12-29T01:34:34;3.70;99.90
19330;DHT22;9799;48.214;16.388;2022-12-29T01:37:55;3.80;99.90
19330;DHT22;9799;48.214;16.388;2022-12-29T01:41:17;3.70;99.90
19330;DHT22;9799;48.214;16.388;2022-12-29T01:44:50;3.70;99.90
19330;DHT22;9799;48.214;16.388;2022-12-29T01:48:13;3.30;99.90
19330;DHT22;9799;48.214;16.388;2022-12-29T01:51:38;3.10;99.90
19330;DHT22;9799;48.214;16.388;2022-12-29T01:55:02;3.10;99.90
19330;DHT22;9799;48.214;16.388;2022-12-29T01:58:27;3.10;99.90
19330;DHT22;9799;48.214;16.388;2022-12-29T02:01:50;3.10;99.90
19330;DHT22;9799;48.214;16.388;2022-12-29T02:05:18;3.20;99.90
19330;DHT22;9799;48.214;16.388;2022-12-29T02:08:41;3.20;99.90
19330;DHT22;9799;48.214;16.388;2022-12-29T02:12:03;3.10;99.90
19330;DHT22;9799;48.214;16.388;2022-12-29T02:15:36;2.90;99.90
19330;DHT22;9799;48.214;16.388;2022-12-29T02:19:18;2.90;99.90
19330;DHT22;9799;48.214;16.388;2022-12-29T02:22:55;2.80;99.90
19330;DHT22;9799;48.214;16.388;2022-12-29T02:26:42;2.80;99.90
19330;DHT22;9799;48.214;16.388;2022-12-29T02:34:07;2.90;99.90
19330;DHT22;9799;48.214;16.388;2022-12-29T02:37:40;3.10;99.90
19330;DHT22;9799;48.214;16.388;2022-12-29T02:41:05;3.30;99.90
19330;DHT22;9799;48.214;16.388;2022-12-29T02:44:34;3.10;99.90
19330;DHT22;9799;48.214;16.388;2022-12-29T02:48:01;3.00;99.90
19330;DHT22;9799;48.214;16.388;2022-12-29T02:51:29;3.10;99.90
19330;DHT22;9799;48.214;16.388;2022-12-29T02:54:53;3.30;99.90
19330;DHT22;9799;48.214;16.388;2022-12-29T02:58:18;3.20;99.90
19330;DHT22;9799;48.214;16.388;2022-12-29T03:01:51;2.90;99.90
19330;DHT22;9799;48.214;16.388;2022-12-29T03:05:51;2.80;99.90
19330;DHT22;9799;48.214;16.388;2022-12-29T03:09:21;2.80;99.90
19330;DHT22;9799;48.214;16.388;2022-12-29T03:12:52;2.70;99.90
19330;DHT22;9799;48.214;16.388;2022-12-29T03:16:37;2.70;99.90
19330;DHT22;9799;48.214;16.388;2022-12-29T03:20:06;2.70;99.90
19330;DHT22;9799;48.214;16.388;2022-12-29T03:23:28;2.70;99.90
19330;DHT22;9799;48.214;16.388;2022-12-29T03:26:54;2.70;99.90
19330;DHT22;9799;48.214;16.388;2022-12-29T03:30:17;2.70;99.90
19330;DHT22;9799;48.214;16.388;2022-12-29T03:33:39;2.70;99.90
19330;DHT22;9799;48.214;16.388;2022-12-29T03:37:06;2.70;99.90
19330;DHT22;9799;48.214;16.388;2022-12-29T03:40:31;2.60;99.90
19330;DHT22;9799;48.214;16.388;2022-12-29T03:43:55;2.60;99.90
19330;DHT22;9799;48.214;16.388;2022-12-29T03:47:16;2.60;99.90
19330;DHT22;9799;48.214;16.388;2022-12-29T03:50:37;2.70;99.90
19330;DHT22;9799;48.214;16.388;2022-12-29T03:53:58;2.60;99.90
19330;DHT22;9799;48.214;16.388;2022-12-29T03:57:20;2.60;99.90
19330;DHT22;9799;48.214;16.388;2022-12-29T04:00:42;2.60;99.90
19330;DHT22;9799;48.214;16.388;2022-12-29T04:04:04;2.60;99.90
19330;DHT22;9799;48.214;16.388;2022-12-29T04:07:25;2.60;99.90
19330;DHT22;9799;48.214;16.388;2022-12-29T04:10:48;2.60;99.90
19330;DHT22;9799;48.214;16.388;2022-12-29T04:14:09;2.60;99.90
19330;DHT22;9799;48.214;16.388;2022-12-29T04:17:31;2.60;99.90
19330;DHT22;9799;48.214;16.388;2022-12-29T04:20:52;2.60;99.90
19330;DHT22;9799;48.214;16.388;2022-12-29T04:24:24;2.60;99.90
19330;DHT22;9799;48.214;16.388;2022-12-29T04:27:45;2.60;99.90
19330;DHT22;9799;48.214;16.388;2022-12-29T04:31:06;2.60;99.90
19330;DHT22;9799;48.214;16.388;2022-12-29T04:34:28;2.50;99.90
19330;DHT22;9799;48.214;16.388;2022-12-29T04:37:49;2.60;99.90
19330;DHT22;9799;48.214;16.388;2022-12-29T04:41:10;2.80;99.90
19330;DHT22;9799;48.214;16.388;2022-12-29T04:44:32;2.70;99.90
19330;DHT22;9799;48.214;16.388;2022-12-29T04:47:53;2.60;99.90
19330;DHT22;9799;48.214;16.388;2022-12-29T04:51:15;2.60;99.90
19330;DHT22;9799;48.214;16.388;2022-12-29T04:54:37;2.70;99.90
19330;DHT22;9799;48.214;16.388;2022-12-29T04:57:58;2.60;99.90
19330;DHT22;9799;48.214;16.388;2022-12-29T05:01:19;2.60;99.90
19330;DHT22;9799;48.214;16.388;2022-12-29T05:04:40;2.60;99.90
19330;DHT22;9799;48.214;16.388;2022-12-29T05:08:03;2.50;99.90
19330;DHT22;9799;48.214;16.388;2022-12-29T05:11:25;2.40;99.90
19330;DHT22;9799;48.214;16.388;2022-12-29T05:14:46;2.50;99.90
19330;DHT22;9799;48.214;16.388;2022-12-29T05:18:07;2.40;99.90
19330;DHT22;9799;48.214;16.388;2022-12-29T05:21:28;2.40;99.90
19330;DHT22;9799;48.214;16.388;2022-12-29T05:24:51;2.30;99.90
19330;DHT22;9799;48.214;16.388;2022-12-29T05:28:12;2.30;99.90
19330;DHT22;9799;48.214;16.388;2022-12-29T05:31:33;2.20;99.90
19330;DHT22;9799;48.214;16.388;2022-12-29T05:34:55;2.10;99.90
19330;DHT22;9799;48.214;16.388;2022-12-29T05:38:16;2.10;99.90
19330;DHT22;9799;48.214;16.388;2022-12-29T05:41:39;2.00;99.90
19330;DHT22;9799;48.214;16.388;2022-12-29T05:45:00;1.90;99.90
19330;DHT22;9799;48.214;16.388;2022-12-29T05:48:21;1.90;99.90
19330;DHT22;9799;48.214;16.388;2022-12-29T05:51:42;1.90;99.90
19330;DHT22;9799;48.214;16.388;2022-12-29T05:55:04;1.90;99.90
19330;DHT22;9799;48.214;16.388;2022-12-29T05:58:27;1.80;99.90
19330;DHT22;9799;48.214;16.388;2022-12-29T06:01:48;1.80;99.90
19330;DHT22;9799;48.214;16.388;2022-12-29T06:05:09;1.80;99.90
19330;DHT22;9799;48.214;16.388;2022-12-29T06:08:31;1.80;99.90
19330;DHT22;9799;48.214;16.388;2022-12-29T06:11:52;1.70;99.90
19330;DHT22;9799;48.214;16.388;2022-12-29T06:15:14;1.60;99.90
19330;DHT22;9799;48.214;16.388;2022-12-29T06:18:35;1.70;99.90
19330;DHT22;9799;48.214;16.388;2022-12-29T06:21:57;1.70;99.90
19330;DHT22;9799;48.214;16.388;2022-12-29T06:25:18;1.70;99.90
19330;DHT22;9799;48.214;16.388;2022-12-29T06:28:39;1.80;99.90
19330;DHT22;9799;48.214;16.388;2022-12-29T06:32:01;1.80;99.90
19330;DHT22;9799;48.214;16.388;2022-12-29T06:35:23;1.90;99.90
19330;DHT22;9799;48.214;16.388;2022-12-29T06:38:44;2.00;99.90
19330;DHT22;9799;48.214;16.388;2022-12-29T06:42:05;1.70;99.90
19330;DHT22;9799;48.214;16.388;2022-12-29T06:45:26;1.60;99.90
19330;DHT22;9799;48.214;16.388;2022-12-29T06:48:49;1.80;99.90
19330;DHT22;9799;48.214;16.388;2022-12-29T06:52:10;1.90;99.90
19330;DHT22;9799;48.214;16.388;2022-12-29T06:55:32;2.00;99.90
19330;DHT22;9799;48.214;16.388;2022-12-29T06:58:53;2.00;99.90
19330;DHT22;9799;48.214;16.388;2022-12-29T07:02:14;2.00;99.90
19330;DHT22;9799;48.214;16.388;2022-12-29T07:05:39;2.10;99.90
19330;DHT22;9799;48.214;16.388;2022-12-29T07:09:00;2.20;99.90
19330;DHT22;9799;48.214;16.388;2022-12-29T07:12:21;2.20;99.90
19330;DHT22;9799;48.214;16.388;2022-12-29T07:15:42;2.30;99.90
19330;DHT22;9799;48.214;16.388;2022-12-29T07:19:03;2.30;99.90
19330;DHT22;9799;48.214;16.388;2022-12-29T07:22:26;2.30;99.90
19330;DHT22;9799;48.214;16.388;2022-12-29T07:25:47;2.50;99.90
19330;DHT22;9799;48.214;16.388;2022-12-29T07:29:08;2.30;99.90
19330;DHT22;9799;48.214;16.388;2022-12-29T07:32:32;2.50;99.90
19330;DHT22;9799;48.214;16.388;2022-12-29T07:35:54;2.50;99.90
19330;DHT22;9799;48.214;16.388;2022-12-29T07:39:17;2.60;99.90
19330;DHT22;9799;48.214;16.388;2022-12-29T07:42:38;2.60;99.90
19330;DHT22;9799;48.214;16.388;2022-12-29T07:45:59;2.60;99.90
19330;DHT22;9799;48.214;16.388;2022-12-29T07:49:20;2.70;99.90
19330;DHT22;9799;48.214;16.388;2022-12-29T07:52:42;2.60;99.90
19330;DHT22;9799;48.214;16.388;2022-12-29T07:56:05;2.40;99.90
19330;DHT22;9799;48.214;16.388;2022-12-29T07:59:27;2.60;99.90
19330;DHT22;9799;48.214;16.388;2022-12-29T08:02:48;2.60;99.90
19330;DHT22;9799;48.214;16.388;2022-12-29T08:06:09;2.50;99.90
19330;DHT22;9799;48.214;16.388;2022-12-29T08:09:31;2.50;99.90
19330;DHT22;9799;48.214;16.388;2022-12-29T08:12:53;2.40;99.90
19330;DHT22;9799;48.214;16.388;2022-12-29T08:16:14;2.50;99.90
19330;DHT22;9799;48.214;16.388;2022-12-29T08:19:36;2.50;99.90
19330;DHT22;9799;48.214;16.388;2022-12-29T08:22:57;2.60;99.90
19330;DHT22;9799;48.214;16.388;2022-12-29T08:26:18;2.60;99.90
19330;DHT22;9799;48.214;16.388;2022-12-29T08:29:41;2.80;99.90
19330;DHT22;9799;48.214;16.388;2022-12-29T08:33:02;2.40;99.90
19330;DHT22;9799;48.214;16.388;2022-12-29T08:36:23;2.40;99.90
19330;DHT22;9799;48.214;16.388;2022-12-29T08:39:44;2.10;99.90
19330;DHT22;9799;48.214;16.388;2022-12-29T08:43:06;1.90;99.90
19330;DHT22;9799;48.214;16.388;2022-12-29T08:46:28;1.70;99.90
19330;DHT22;9799;48.214;16.388;2022-12-29T08:49:49;1.60;99.90
19330;DHT22;9799;48.214;16.388;2022-12-29T08:53:10;1.50;99.90
19330;DHT22;9799;48.214;16.388;2022-12-29T08:56:32;1.50;99.90
19330;DHT22;9799;48.214;16.388;2022-12-29T08:59:53;1.70;99.90
19330;DHT22;9799;48.214;16.388;2022-12-29T09:03:16;1.80;99.90
19330;DHT22;9799;48.214;16.388;2022-12-29T09:06:37;1.90;99.90
19330;DHT22;9799;48.214;16.388;2022-12-29T09:09:58;2.10;99.90
19330;DHT22;9799;48.214;16.388;2022-12-29T09:13:19;2.30;99.90
19330;DHT22;9799;48.214;16.388;2022-12-29T09:16:41;2.20;99.90
19330;DHT22;9799;48.214;16.388;2022-12-29T09:20:21;2.10;99.90
19330;DHT22;9799;48.214;16.388;2022-12-29T09:23:43;1.90;99.90
19330;DHT22;9799;48.214;16.388;2022-12-29T09:27:04;1.70;99.90
19330;DHT22;9799;48.214;16.388;2022-12-29T09:30:25;1.90;99.90
19330;DHT22;9799;48.214;16.388;2022-12-29T09:33:46;1.70;99.90
19330;DHT22;9799;48.214;16.388;2022-12-29T09:37:09;1.70;99.90
19330;DHT22;9799;48.214;16.388;2022-12-29T09:40:31;1.70;99.90
19330;DHT22;9799;48.214;16.388;2022-12-29T09:44:05;1.60;99.90
19330;DHT22;9799;48.214;16.388;2022-12-29T09:47:28;1.70;99.90
19330;DHT22;9799;48.214;16.388;2022-12-29T09:50:54;1.90;99.90
19330;DHT22;9799;48.214;16.388;2022-12-29T09:54:39;1.80;99.90
19330;DHT22;9799;48.214;16.388;2022-12-29T09:58:05;1.80;99.90
19330;DHT22;9799;48.214;16.388;2022-12-29T10:01:31;2.10;99.90
19330;DHT22;9799;48.214;16.388;2022-12-29T10:04:53;2.10;99.90
19330;DHT22;9799;48.214;16.388;2022-12-29T10:08:25;2.10;99.90
19330;DHT22;9799;48.214;16.388;2022-12-29T10:12:01;2.10;99.90
19330;DHT22;9799;48.214;16.388;2022-12-29T10:15:44;2.10;99.90
19330;DHT22;9799;48.214;16.388;2022-12-29T10:19:43;2.10;99.90
19330;DHT22;9799;48.214;16.388;2022-12-29T10:23:19;2.00;99.90
19330;DHT22;9799;48.214;16.388;2022-12-29T10:26:44;2.00;99.90
19330;DHT22;9799;48.214;16.388;2022-12-29T10:30:11;2.30;99.90
19330;DHT22;9799;48.214;16.388;2022-12-29T10:33:36;2.30;99.90
19330;DHT22;9799;48.214;16.388;2022-12-29T10:37:02;2.30;99.90
19330;DHT22;9799;48.214;16.388;2022-12-29T10:40:27;2.30;99.90
19330;DHT22;9799;48.214;16.388;2022-12-29T10:43:52;2.30;99.90
19330;DHT22;9799;48.214;16.388;2022-12-29T10:47:18;2.50;99.90
19330;DHT22;9799;48.214;16.388;2022-12-29T10:50:42;2.70;99.90
19330;DHT22;9799;48.214;16.388;2022-12-29T10:54:06;2.50;99.90
19330;DHT22;9799;48.214;16.388;2022-12-29T10:57:34;2.50;99.90
19330;DHT22;9799;48.214;16.388;2022-12-29T11:00:56;2.50;99.90
19330;DHT22;9799;48.214;16.388;2022-12-29T11:04:29;2.50;99.90
19330;DHT22;9799;48.214;16.388;2022-12-29T11:07:54;2.30;99.90
19330;DHT22;9799;48.214;16.388;2022-12-29T11:11:24;2.30;99.90
19330;DHT22;9799;48.214;16.388;2022-12-29T11:14:46;2.40;99.90
19330;DHT22;9799;48.214;16.388;2022-12-29T11:18:18;2.50;99.90
19330;DHT22;9799;48.214;16.388;2022-12-29T11:21:41;2.40;99.90
19330;DHT22;9799;48.214;16.388;2022-12-29T11:25:10;2.60;99.90
19330;DHT22;9799;48.214;16.388;2022-12-29T11:28:33;2.60;99.90
19330;DHT22;9799;48.214;16.388;2022-12-29T11:31:56;2.60;99.90
19330;DHT22;9799;48.214;16.388;2022-12-29T11:35:30;2.60;99.90
19330;DHT22;9799;48.214;16.388;2022-12-29T11:38:54;2.50;99.90
19330;DHT22;9799;48.214;16.388;2022-12-29T11:42:18;2.60;99.90
19330;DHT22;9799;48.214;16.388;2022-12-29T11:45:45;2.80;99.90
19330;DHT22;9799;48.214;16.388;2022-12-29T11:49:13;2.80;99.90
19330;DHT22;9799;48.214;16.388;2022-12-29T11:52:36;2.60;99.90
19330;DHT22;9799;48.214;16.388;2022-12-29T11:56:02;2.80;99.90
19330;DHT22;9799;48.214;16.388;2022-12-29T11:59:36;3.10;99.90
19330;DHT22;9799;48.214;16.388;2022-12-29T12:03:00;2.90;99.90
19330;DHT22;9799;48.214;16.388;2022-12-29T12:06:23;2.80;99.90
19330;DHT22;9799;48.214;16.388;2022-12-29T12:09:50;2.90;99.90
19330;DHT22;9799;48.214;16.388;2022-12-29T12:13:19;2.90;99.90
19330;DHT22;9799;48.214;16.388;2022-12-29T12:16:46;3.00;99.90
19330;DHT22;9799;48.214;16.388;2022-12-29T12:20:18;2.90;99.90
19330;DHT22;9799;48.214;16.388;2022-12-29T12:23:57;3.10;99.90
19330;DHT22;9799;48.214;16.388;2022-12-29T12:27:26;2.90;99.90
19330;DHT22;9799;48.214;16.388;2022-12-29T12:30:53;3.10;99.90
19330;DHT22;9799;48.214;16.388;2022-12-29T12:34:19;3.00;99.90
19330;DHT22;9799;48.214;16.388;2022-12-29T12:38:05;3.00;99.90
19330;DHT22;9799;48.214;16.388;2022-12-29T12:41:35;3.10;99.90
19330;DHT22;9799;48.214;16.388;2022-12-29T12:45:14;3.40;99.90
19330;DHT22;9799;48.214;16.388;2022-12-29T12:52:36;3.70;99.90
19330;DHT22;9799;48.214;16.388;2022-12-29T12:56:28;3.80;99.90
19330;DHT22;9799;48.214;16.388;2022-12-29T12:59:59;3.80;99.90
19330;DHT22;9799;48.214;16.388;2022-12-29T13:03:26;3.70;99.90
19330;DHT22;9799;48.214;16.388;2022-12-29T13:06:57;3.70;99.90
19330;DHT22;9799;48.214;16.388;2022-12-29T13:10:33;4.00;99.90
19330;DHT22;9799;48.214;16.388;2022-12-29T13:14:13;4.20;99.90
19330;DHT22;9799;48.214;16.388;2022-12-29T13:17:42;4.00;99.90
19330;DHT22;9799;48.214;16.388;2022-12-29T13:21:15;3.80;99.90
19330;DHT22;9799;48.214;16.388;2022-12-29T13:24:55;3.80;99.90
19330;DHT22;9799;48.214;16.388;2022-12-29T13:28:23;3.80;99.90
19330;DHT22;9799;48.214;16.388;2022-12-29T13:31:52;4.00;99.90
19330;DHT22;9799;48.214;16.388;2022-12-29T13:35:25;4.10;99.90
19330;DHT22;9799;48.214;16.388;2022-12-29T13:38:54;4.20;99.90
19330;DHT22;9799;48.214;16.388;2022-12-29T13:42:23;4.10;99.90
19330;DHT22;9799;48.214;16.388;2022-12-29T13:45:45;4.20;99.90
19330;DHT22;9799;48.214;16.388;2022-12-29T13:49:13;4.30;99.90
19330;DHT22;9799;48.214;16.388;2022-12-29T13:52:40;4.20;99.90
19330;DHT22;9799;48.214;16.388;2022-12-29T13:56:07;4.20;99.90
19330;DHT22;9799;48.214;16.388;2022-12-29T13:59:39;4.10;99.90
19330;DHT22;9799;48.214;16.388;2022-12-29T14:03:20;4.00;99.90
19330;DHT22;9799;48.214;16.388;2022-12-29T14:06:44;3.90;99.90
19330;DHT22;9799;48.214;16.388;2022-12-29T14:10:27;3.70;99.90
19330;DHT22;9799;48.214;16.388;2022-12-29T14:13:49;3.80;99.90
19330;DHT22;9799;48.214;16.388;2022-12-29T14:17:12;3.70;99.90
19330;DHT22;9799;48.214;16.388;2022-12-29T14:20:34;3.70;99.90
19330;DHT22;9799;48.214;16.388;2022-12-29T14:27:57;3.80;99.90
19330;DHT22;9799;48.214;16.388;2022-12-29T14:31:39;3.90;99.90
19330;DHT22;9799;48.214;16.388;2022-12-29T14:35:37;3.80;99.90
19330;DHT22;9799;48.214;16.388;2022-12-29T14:38:58;3.60;99.90
19330;DHT22;9799;48.214;16.388;2022-12-29T14:42:20;3.90;99.90
19330;DHT22;9799;48.214;16.388;2022-12-29T14:45:43;3.90;99.90
19330;DHT22;9799;48.214;16.388;2022-12-29T14:49:17;4.00;99.90
19330;DHT22;9799;48.214;16.388;2022-12-29T14:52:46;3.90;99.90
19330;DHT22;9799;48.214;16.388;2022-12-29T14:56:09;3.70;99.90
19330;DHT22;9799;48.214;16.388;2022-12-29T14:59:32;3.70;99.90
19330;DHT22;9799;48.214;16.388;2022-12-29T15:03:11;3.70;99.90
19330;DHT22;9799;48.214;16.388;2022-12-29T15:06:36;3.80;99.90
19330;DHT22;9799;48.214;16.388;2022-12-29T15:10:07;3.90;99.90
19330;DHT22;9799;48.214;16.388;2022-12-29T15:13:34;3.90;99.90
19330;DHT22;9799;48.214;16.388;2022-12-29T15:16:56;3.90;99.90
19330;DHT22;9799;48.214;16.388;2022-12-29T15:20:23;3.70;99.90
19330;DHT22;9799;48.214;16.388;2022-12-29T15:23:45;3.60;99.90
19330;DHT22;9799;48.214;16.388;2022-12-29T15:27:13;3.50;99.90
19330;DHT22;9799;48.214;16.388;2022-12-29T15:30:35;3.50;99.90
19330;DHT22;9799;48.214;16.388;2022-12-29T15:34:08;3.60;99.90
19330;DHT22;9799;48.214;16.388;2022-12-29T15:37:33;3.70;99.90
19330;DHT22;9799;48.214;16.388;2022-12-29T15:40:58;3.80;99.90
19330;DHT22;9799;48.214;16.388;2022-12-29T15:44:25;3.90;99.90
19330;DHT22;9799;48.214;16.388;2022-12-29T15:47:48;3.70;99.90
19330;DHT22;9799;48.214;16.388;2022-12-29T15:51:17;3.70;99.90
19330;DHT22;9799;48.214;16.388;2022-12-29T15:54:42;3.60;99.90
19330;DHT22;9799;48.214;16.388;2022-12-29T15:58:05;3.70;99.90
19330;DHT22;9799;48.214;16.388;2022-12-29T16:01:30;3.60;99.90
19330;DHT22;9799;48.214;16.388;2022-12-29T16:04:52;3.50;99.90
19330;DHT22;9799;48.214;16.388;2022-12-29T16:08:24;3.30;99.90
19330;DHT22;9799;48.214;16.388;2022-12-29T16:11:51;3.30;99.90
19330;DHT22;9799;48.214;16.388;2022-12-29T16:15:14;3.20;99.90
19330;DHT22;9799;48.214;16.388;2022-12-29T16:18:37;3.20;99.90
19330;DHT22;9799;48.214;16.388;2022-12-29T16:22:00;3.20;99.90
19330;DHT22;9799;48.214;16.388;2022-12-29T16:25:24;3.10;99.90
19330;DHT22;9799;48.214;16.388;2022-12-29T16:28:49;3.10;99.90
19330;DHT22;9799;48.214;16.388;2022-12-29T16:32:24;3.10;99.90
19330;DHT22;9799;48.214;16.388;2022-12-29T16:35:47;3.20;99.90
19330;DHT22;9799;48.214;16.388;2022-12-29T16:39:19;3.40;99.90
19330;DHT22;9799;48.214;16.388;2022-12-29T16:42:46;3.40;99.90
19330;DHT22;9799;48.214;16.388;2022-12-29T16:46:26;3.50;99.90
19330;DHT22;9799;48.214;16.388;2022-12-29T16:49:52;3.40;99.90
19330;DHT22;9799;48.214;16.388;2022-12-29T16:53:21;3.40;99.90
19330;DHT22;9799;48.214;16.388;2022-12-29T16:56:45;3.40;99.90
19330;DHT22;9799;48.214;16.388;2022-12-29T17:00:16;3.40;99.90
19330;DHT22;9799;48.214;16.388;2022-12-29T17:03:41;3.50;99.90
19330;DHT22;9799;48.214;16.388;2022-12-29T17:07:08;3.50;99.90
19330;DHT22;9799;48.214;16.388;2022-12-29T17:10:33;3.60;99.90
19330;DHT22;9799;48.214;16.388;2022-12-29T17:14:20;3.70;99.90
19330;DHT22;9799;48.214;16.388;2022-12-29T17:17:44;3.80;99.90
19330;DHT22;9799;48.214;16.388;2022-12-29T17:21:06;3.80;99.90
19330;DHT22;9799;48.214;16.388;2022-12-29T17:24:28;3.70;99.90
19330;DHT22;9799;48.214;16.388;2022-12-29T17:27:52;3.70;99.90
19330;DHT22;9799;48.214;16.388;2022-12-29T17:31:15;3.80;99.90
19330;DHT22;9799;48.214;16.388;2022-12-29T17:34:37;3.80;99.90
19330;DHT22;9799;48.214;16.388;2022-12-29T17:37:58;3.80;99.90
19330;DHT22;9799;48.214;16.388;2022-12-29T17:41:19;3.80;99.90
19330;DHT22;9799;48.214;16.388;2022-12-29T17:44:42;3.90;99.90
19330;DHT22;9799;48.214;16.388;2022-12-29T17:48:07;3.80;99.90
19330;DHT22;9799;48.214;16.388;2022-12-29T17:51:31;4.00;99.90
19330;DHT22;9799;48.214;16.388;2022-12-29T17:54:52;3.90;99.90
19330;DHT22;9799;48.214;16.388;2022-12-29T17:58:16;3.80;99.90
19330;DHT22;9799;48.214;16.388;2022-12-29T18:01:39;3.80;99.90
19330;DHT22;9799;48.214;16.388;2022-12-29T18:05:01;3.70;99.90
19330;DHT22;9799;48.214;16.388;2022-12-29T18:08:22;3.70;99.90
19330;DHT22;9799;48.214;16.388;2022-12-29T18:11:44;3.80;99.90
19330;DHT22;9799;48.214;16.388;2022-12-29T18:15:09;3.70;99.90
19330;DHT22;9799;48.214;16.388;2022-12-29T18:18:37;3.70;99.90
19330;DHT22;9799;48.214;16.388;2022-12-29T18:21:58;4.00;99.90
19330;DHT22;9799;48.214;16.388;2022-12-29T18:25:22;4.00;99.90
19330;DHT22;9799;48.214;16.388;2022-12-29T18:28:45;3.90;99.90
19330;DHT22;9799;48.214;16.388;2022-12-29T18:32:11;3.80;99.90
19330;DHT22;9799;48.214;16.388;2022-12-29T18:35:37;3.90;99.90
19330;DHT22;9799;48.214;16.388;2022-12-29T18:38:59;3.90;99.90
19330;DHT22;9799;48.214;16.388;2022-12-29T18:42:20;4.00;99.90
19330;DHT22;9799;48.214;16.388;2022-12-29T18:45:41;4.00;99.90
19330;DHT22;9799;48.214;16.388;2022-12-29T18:49:04;4.10;99.90
19330;DHT22;9799;48.214;16.388;2022-12-29T18:52:27;4.10;99.90
19330;DHT22;9799;48.214;16.388;2022-12-29T18:55:48;4.10;99.90
19330;DHT22;9799;48.214;16.388;2022-12-29T18:59:10;4.00;99.90
19330;DHT22;9799;48.214;16.388;2022-12-29T19:02:31;4.10;99.90
19330;DHT22;9799;48.214;16.388;2022-12-29T19:05:53;4.10;99.90
19330;DHT22;9799;48.214;16.388;2022-12-29T19:09:16;4.10;99.90
19330;DHT22;9799;48.214;16.388;2022-12-29T19:12:37;4.00;99.90
19330;DHT22;9799;48.214;16.388;2022-12-29T19:15:59;4.00;99.90
19330;DHT22;9799;48.214;16.388;2022-12-29T19:19:20;4.00;99.90
19330;DHT22;9799;48.214;16.388;2022-12-29T19:22:41;4.10;99.90
19330;DHT22;9799;48.214;16.388;2022-12-29T19:26:04;4.10;99.90
19330;DHT22;9799;48.214;16.388;2022-12-29T19:29:26;4.10;99.90
19330;DHT22;9799;48.214;16.388;2022-12-29T19:32:51;4.20;99.90
19330;DHT22;9799;48.214;16.388;2022-12-29T19:36:13;4.40;99.90
19330;DHT22;9799;48.214;16.388;2022-12-29T19:39:35;4.40;99.90
19330;DHT22;9799;48.214;16.388;2022-12-29T19:42:58;4.50;99.90
19330;DHT22;9799;48.214;16.388;2022-12-29T19:46:20;4.40;99.90
19330;DHT22;9799;48.214;16.388;2022-12-29T19:49:41;4.30;99.90
19330;DHT22;9799;48.214;16.388;2022-12-29T19:53:03;4.30;99.90
19330;DHT22;9799;48.214;16.388;2022-12-29T19:56:24;4.30;99.90
19330;DHT22;9799;48.214;16.388;2022-12-29T19:59:47;4.30;99.90
19330;DHT22;9799;48.214;16.388;2022-12-29T20:03:09;4.30;99.90
19330;DHT22;9799;48.214;16.388;2022-12-29T20:06:31;4.30;99.90
19330;DHT22;9799;48.214;16.388;2022-12-29T20:09:52;4.30;99.90
19330;DHT22;9799;48.214;16.388;2022-12-29T20:13:13;4.30;99.90
19330;DHT22;9799;48.214;16.388;2022-12-29T20:16:36;4.20;99.90
19330;DHT22;9799;48.214;16.388;2022-12-29T20:19:57;4.20;99.90
19330;DHT22;9799;48.214;16.388;2022-12-29T20:23:18;4.20;99.90
19330;DHT22;9799;48.214;16.388;2022-12-29T20:26:40;4.30;99.90
19330;DHT22;9799;48.214;16.388;2022-12-29T20:30:01;4.30;99.90
19330;DHT22;9799;48.214;16.388;2022-12-29T20:33:24;4.40;99.90
19330;DHT22;9799;48.214;16.388;2022-12-29T20:36:47;4.30;99.90
19330;DHT22;9799;48.214;16.388;2022-12-29T20:40:09;4.30;99.90
19330;DHT22;9799;48.214;16.388;2022-12-29T20:43:30;4.30;99.90
19330;DHT22;9799;48.214;16.388;2022-12-29T20:46:52;4.30;99.90
19330;DHT22;9799;48.214;16.388;2022-12-29T20:50:15;4.30;99.90
19330;DHT22;9799;48.214;16.388;2022-12-29T20:53:37;4.30;99.90
19330;DHT22;9799;48.214;16.388;2022-12-29T20:56:58;4.30;99.90
19330;DHT22;9799;48.214;16.388;2022-12-29T21:00:20;4.30;99.90
19330;DHT22;9799;48.214;16.388;2022-12-29T21:03:41;4.30;99.90
19330;DHT22;9799;48.214;16.388;2022-12-29T21:07:04;4.20;99.90
19330;DHT22;9799;48.214;16.388;2022-12-29T21:10:25;4.20;99.90
19330;DHT22;9799;48.214;16.388;2022-12-29T21:13:47;4.10;99.90
19330;DHT22;9799;48.214;16.388;2022-12-29T21:17:08;4.10;99.90
19330;DHT22;9799;48.214;16.388;2022-12-29T21:20:29;4.20;99.90
19330;DHT22;9799;48.214;16.388;2022-12-29T21:23:52;4.10;99.90
19330;DHT22;9799;48.214;16.388;2022-12-29T21:27:13;4.10;99.90
19330;DHT22;9799;48.214;16.388;2022-12-29T21:30:35;4.10;99.90
19330;DHT22;9799;48.214;16.388;2022-12-29T21:33:56;4.10;99.90
19330;DHT22;9799;48.214;16.388;2022-12-29T21:37:17;4.00;99.90
19330;DHT22;9799;48.214;16.388;2022-12-29T21:40:40;4.00;99.90
19330;DHT22;9799;48.214;16.388;2022-12-29T21:44:01;4.00;99.90
19330;DHT22;9799;48.214;16.388;2022-12-29T21:47:39;3.90;99.90
19330;DHT22;9799;48.214;16.388;2022-12-29T21:51:14;4.00;99.90
19330;DHT22;9799;48.214;16.388;2022-12-29T21:54:53;4.00;99.90
19330;DHT22;9799;48.214;16.388;2022-12-29T21:58:21;4.00;99.90
19330;DHT22;9799;48.214;16.388;2022-12-29T22:01:59;4.00;99.90
19330;DHT22;9799;48.214;16.388;2022-12-29T22:05:41;4.00;99.90
19330;DHT22;9799;48.214;16.388;2022-12-29T22:09:20;4.00;99.90